Time;durP1;ratioP1;P1;durP2;ratioP2;P2;SDS_P1;SDS_P2;PMS_P1;PMS_P2;Temp;Humidity;BMP_temperature;BMP_pressure;BME280_temperature;BME280_humidity;BME280_pressure;Samples;Min_cycle;Max_cycle;Signal;HPM_P1;HPM_P2
2023/08/22 00:00:40;;;;;;;10.52;6.82;;;;;;;17.11;100.00;102077.94;4935281;29;20220;-77
2023/08/22 00:03:05;;;;;;;9.57;6.70;;;;;;;16.99;100.00;102047.47;4935339;29;20110;-77
2023/08/22 00:05:31;;;;;;;11.93;7.20;;;;;;;17.12;100.00;102066.56;4935291;29;20401;-77
2023/08/22 00:07:57;;;;;;;14.40;7.50;;;;;;;17.07;100.00;102065.19;4935477;29;20051;-77
2023/08/22 00:10:22;;;;;;;11.60;7.13;;;;;;;17.14;100.00;102077.72;4935266;29;20525;-77
2023/08/22 00:12:47;;;;;;;9.85;6.47;;;;;;;17.10;100.00;102057.16;4935398;29;20474;-77
2023/08/22 00:15:13;;;;;;;10.05;6.47;;;;;;;17.08;100.00;102056.44;4935026;29;20128;-77
2023/08/22 00:17:43;;;;;;;8.30;5.82;;;;;;;17.12;100.00;102066.56;4935221;29;20028;-77
2023/08/22 00:20:11;;;;;;;7.97;5.65;;;;;;;17.09;100.00;102061.53;4933702;29;20113;-77
2023/08/22 00:22:37;;;;;;;7.90;5.40;;;;;;;17.13;100.00;102076.06;4935222;29;20031;-77
2023/08/22 00:25:04;;;;;;;8.45;5.50;;;;;;;16.80;100.00;102021.84;4935303;29;20110;-77
2023/08/22 00:27:30;;;;;;;8.32;5.35;;;;;;;17.09;100.00;102071.13;4935075;29;20115;-78
2023/08/22 00:29:56;;;;;;;10.05;5.55;;;;;;;16.95;100.00;102053.84;4934954;29;20102;-77
2023/08/22 00:32:22;;;;;;;10.30;6.07;;;;;;;17.02;100.00;102068.16;4917931;29;20484;-78
2023/08/22 00:34:47;;;;;;;10.55;6.05;;;;;;;17.06;100.00;102066.16;4935035;29;20028;-78
2023/08/22 00:37:12;;;;;;;9.00;6.13;;;;;;;16.95;100.00;102053.03;4934931;29;20108;-78
2023/08/22 00:39:38;;;;;;;10.30;6.40;;;;;;;17.05;100.00;102064.47;4934977;29;20063;-78
2023/08/22 00:42:03;;;;;;;17.52;6.88;;;;;;;17.02;100.00;102062.09;4934928;29;20039;-78
2023/08/22 00:44:28;;;;;;;10.60;6.30;;;;;;;17.02;100.00;102054.28;4934837;29;20028;-78
2023/08/22 00:46:54;;;;;;;7.72;6.18;;;;;;;16.95;100.00;102061.69;4934875;29;20071;-78
2023/08/22 00:49:20;;;;;;;10.40;6.35;;;;;;;16.97;100.00;102053.75;4935128;29;20031;-79
2023/08/22 00:51:45;;;;;;;10.23;6.28;;;;;;;16.95;100.00;102053.84;4934809;29;20111;-78
2023/08/22 00:54:11;;;;;;;10.30;5.90;;;;;;;16.97;100.00;102051.13;4934762;29;20031;-78
2023/08/22 00:56:37;;;;;;;11.00;6.60;;;;;;;16.94;100.00;102040.94;4934732;29;20035;-78
2023/08/22 00:59:03;;;;;;;14.77;7.20;;;;;;;16.93;100.00;102034.88;4935038;29;20054;-78
2023/08/22 01:01:29;;;;;;;13.32;7.18;;;;;;;16.79;100.00;102028.00;4934816;29;20024;-77
2023/08/22 01:03:55;;;;;;;9.75;6.78;;;;;;;16.90;100.00;102042.91;4934819;29;20063;-79
2023/08/22 01:06:50;;;;;;;11.57;7.60;;;;;;;16.88;100.00;102045.63;4934711;29;20111;-79
2023/08/22 01:09:33;;;;;;;13.50;7.75;;;;;;;16.83;100.00;102050.34;4934817;29;20051;-79
2023/08/22 01:12:08;;;;;;;12.13;7.75;;;;;;;16.78;100.00;102046.38;4937277;29;20028;-78
2023/08/22 01:14:38;;;;;;;14.68;8.13;;;;;;;16.44;100.00;101999.13;4938241;29;20502;-78
2023/08/22 01:17:06;;;;;;;13.93;8.40;;;;;;;16.51;100.00;102021.22;4938019;29;20032;-78
2023/08/22 01:19:32;;;;;;;11.80;8.15;;;;;;;16.55;100.00;102037.50;4938049;29;20370;-77
2023/08/22 01:21:57;;;;;;;11.25;8.32;;;;;;;16.55;100.00;102035.72;4938155;29;20028;-79
2023/08/22 01:24:23;;;;;;;11.20;8.23;;;;;;;16.55;100.00;102043.56;4937920;29;20035;-79
2023/08/22 01:26:48;;;;;;;13.50;8.95;;;;;;;16.53;100.00;102048.06;4937973;29;20036;-78
2023/08/22 01:29:38;;;;;;;13.85;8.68;;;;;;;16.54;100.00;102051.50;4937983;29;20028;-79
2023/08/22 01:32:06;;;;;;;14.70;8.60;;;;;;;16.46;100.00;102035.53;4938167;29;20024;-80
2023/08/22 01:34:37;;;;;;;12.88;8.50;;;;;;;16.29;100.00;102011.44;4937771;29;20501;-80
2023/08/22 01:37:03;;;;;;;13.93;8.50;;;;;;;16.30;100.00;102015.72;4937686;29;20478;-78
2023/08/22 01:39:29;;;;;;;14.32;8.70;;;;;;;16.34;100.00;102027.63;4937517;29;20047;-80
2023/08/22 01:41:56;;;;;;;13.75;8.65;;;;;;;16.39;100.00;102023.84;4937702;29;20040;-79
2023/08/22 01:44:22;;;;;;;12.98;8.77;;;;;;;16.32;100.00;102021.69;4937596;29;20024;-78
2023/08/22 01:46:47;;;;;;;13.52;9.00;;;;;;;16.39;100.00;102031.66;4937787;29;20050;-80
2023/08/22 01:49:13;;;;;;;11.70;8.90;;;;;;;16.35;100.00;102024.06;4937498;29;20481;-78
2023/08/22 01:51:38;;;;;;;14.07;8.43;;;;;;;16.34;100.00;102027.63;4937712;29;20032;-78
2023/08/22 01:54:04;;;;;;;14.13;9.50;;;;;;;16.35;100.00;102023.22;4937486;29;20103;-78
2023/08/22 01:56:30;;;;;;;14.57;9.82;;;;;;;16.39;100.00;102016.84;4937220;29;20514;-78
2023/08/22 01:58:55;;;;;;;10.98;8.52;;;;;;;16.40;100.00;102015.91;4937429;29;20028;-79
2023/08/22 02:01:22;;;;;;;11.43;8.93;;;;;;;16.32;100.00;101999.97;4919743;29;20040;-78
2023/08/22 02:03:47;;;;;;;13.85;9.77;;;;;;;16.40;100.00;102015.91;4920353;29;20102;-78
2023/08/22 02:06:12;;;;;;;14.05;9.18;;;;;;;16.40;100.00;102010.69;4937403;29;20473;-78
2023/08/22 02:08:39;;;;;;;12.60;8.80;;;;;;;16.32;100.00;101999.97;4937365;29;20072;-77
2023/08/22 02:11:05;;;;;;;11.10;8.98;;;;;;;16.39;100.00;102016.84;4919910;29;20059;-78
2023/08/22 02:13:31;;;;;;;12.52;8.43;;;;;;;16.29;100.00;101997.56;4937260;29;20103;-77
2023/08/22 02:15:56;;;;;;;10.73;8.45;;;;;;;16.25;100.00;101994.34;4936998;29;20039;-77
2023/08/22 02:18:21;;;;;;;12.32;8.23;;;;;;;16.18;100.00;101980.06;4920325;29;20072;-77
2023/08/22 02:20:51;;;;;;;12.10;9.32;;;;;;;16.34;100.00;102011.97;4936765;29;20032;-77
2023/08/22 02:23:17;;;;;;;14.25;9.23;;;;;;;16.33;100.00;102007.69;4936015;29;20031;-77
2023/08/22 02:25:42;;;;;;;14.13;8.45;;;;;;;16.30;100.00;102004.44;4937021;29;20024;-77
2023/08/22 02:28:07;;;;;;;13.90;9.35;;;;;;;16.22;100.00;101999.78;4937002;29;20385;-77
2023/08/22 02:30:34;;;;;;;11.32;8.30;;;;;;;16.27;100.00;102007.28;4936730;29;20024;-77
2023/08/22 02:32:59;;;;;;;12.48;9.23;;;;;;;16.09;100.00;101975.47;4936753;29;20032;-78
2023/08/22 02:35:24;;;;;;;10.75;8.40;;;;;;;16.04;100.00;101975.81;4936275;29;20031;-79
2023/08/22 02:37:51;;;;;;;12.00;7.97;;;;;;;16.09;100.00;101979.84;4936779;29;20134;-77
2023/08/22 02:40:16;;;;;;;12.27;8.43;;;;;;;16.20;100.00;102001.63;4936485;29;20055;-78
2023/08/22 02:42:41;;;;;;;13.02;8.30;;;;;;;16.19;100.00;102001.75;4936682;29;20385;-78
2023/08/22 02:45:07;;;;;;;12.02;8.93;;;;;;;16.16;100.00;102008.00;4936645;29;20469;-78
2023/08/22 02:47:32;;;;;;;11.18;8.55;;;;;;;16.13;100.00;101999.56;4936390;29;20474;-78
2023/08/22 02:49:58;;;;;;;11.80;8.65;;;;;;;16.03;100.00;101983.72;4936177;29;20023;-77
2023/08/22 02:52:24;;;;;;;12.48;9.20;;;;;;;16.15;100.00;102006.34;4936428;29;20488;-78
2023/08/22 02:54:50;;;;;;;11.93;8.93;;;;;;;16.15;100.00;102006.34;4936287;29;20027;-79
2023/08/22 02:57:16;;;;;;;11.02;9.18;;;;;;;16.15;100.00;102001.13;4936466;29;20394;-79
2023/08/22 02:59:41;;;;;;;10.93;8.75;;;;;;;16.14;100.00;102007.28;4936351;29;20110;-78
2023/08/22 03:02:06;;;;;;;12.60;8.85;;;;;;;16.16;100.00;102010.63;4936166;29;20401;-78
2023/08/22 03:04:33;;;;;;;11.55;8.10;;;;;;;16.14;100.00;102004.69;4935805;29;20036;-78
2023/08/22 03:06:58;;;;;;;10.18;8.50;;;;;;;16.11;100.00;102009.25;4936158;29;20549;-77
2023/08/22 03:09:24;;;;;;;11.77;8.45;;;;;;;16.09;100.00;102005.91;4934495;29;20031;-78
2023/08/22 03:11:49;;;;;;;11.23;8.15;;;;;;;16.04;100.00;102008.84;4936139;29;20099;-77
2023/08/22 03:14:15;;;;;;;11.15;8.52;;;;;;;16.00;100.00;102002.97;4936086;29;20040;-78
2023/08/22 03:16:40;;;;;;;12.35;8.98;;;;;;;15.87;100.00;101990.88;4935697;29;20036;-78
2023/08/22 03:19:05;;;;;;;12.35;8.18;;;;;;;15.86;100.00;101989.22;4935882;29;20043;-79
2023/08/22 03:21:31;;;;;;;14.52;8.57;;;;;;;15.78;100.00;101979.31;4935692;29;20047;-78
2023/08/22 03:23:56;;;;;;;10.80;8.30;;;;;;;15.85;100.00;101988.41;4935879;29;20055;-78
2023/08/22 03:26:21;;;;;;;9.63;8.40;;;;;;;15.86;100.00;101991.81;4918767;29;20408;-78
2023/08/22 03:28:47;;;;;;;11.38;8.18;;;;;;;15.74;100.00;101977.84;4935833;29;20094;-78
2023/08/22 03:31:12;;;;;;;10.07;8.00;;;;;;;15.72;100.00;101987.53;4935693;29;20027;-78
2023/08/22 03:33:37;;;;;;;12.27;8.15;;;;;;;15.66;100.00;101982.72;4918456;29;20039;-78
2023/08/22 03:36:03;;;;;;;11.38;8.25;;;;;;;15.74;100.00;102001.31;4935637;29;20035;-78
2023/08/22 03:38:29;;;;;;;13.45;8.25;;;;;;;15.58;100.00;101979.75;4935820;29;20363;-77
2023/08/22 03:40:56;;;;;;;12.90;8.45;;;;;;;15.62;100.00;101986.47;4935545;29;20200;-78
2023/08/22 03:43:22;;;;;;;11.60;7.90;;;;;;;15.62;100.00;101992.50;4935526;29;20036;-78
2023/08/22 03:45:47;;;;;;;12.52;8.60;;;;;;;15.49;100.00;101970.78;4935520;29;20028;-77
2023/08/22 03:48:13;;;;;;;11.10;8.43;;;;;;;15.57;100.00;102001.53;4935318;29;20027;-77
2023/08/22 03:50:41;;;;;;;14.60;9.07;;;;;;;15.53;100.00;102002.66;4918373;29;20480;-78
2023/08/22 03:53:08;;;;;;;11.95;8.02;;;;;;;15.50;100.00;101996.72;4935301;29;20031;-77
2023/08/22 03:55:34;;;;;;;11.13;7.75;;;;;;;15.47;100.00;101999.53;4935423;29;20028;-78
2023/08/22 03:57:59;;;;;;;11.45;7.53;;;;;;;15.47;100.00;102003.91;4935439;29;20367;-77
2023/08/22 04:00:26;;;;;;;10.65;8.80;;;;;;;15.40;100.00;102002.63;4935233;29;20422;-77
2023/08/22 04:02:55;;;;;;;12.35;7.85;;;;;;;15.35;100.00;102007.28;4935384;29;20413;-77
2023/08/22 04:05:21;;;;;;;9.88;8.10;;;;;;;15.34;100.00;102003.00;4935097;29;20465;-77
2023/08/22 04:07:46;;;;;;;12.15;7.93;;;;;;;15.30;100.00;101993.72;4935327;29;20358;-77
2023/08/22 04:10:12;;;;;;;9.70;7.25;;;;;;;15.27;100.00;101999.97;4935563;29;20086;-77
2023/08/22 04:12:37;;;;;;;11.80;7.63;;;;;;;15.20;100.00;101980.47;4935383;29;20082;-77
2023/08/22 04:15:02;;;;;;;11.43;7.53;;;;;;;15.20;100.00;101988.28;4935388;29;20553;-78
2023/08/22 04:17:28;;;;;;;9.02;7.50;;;;;;;15.16;100.00;101985.06;4935479;29;20028;-78
2023/08/22 04:19:53;;;;;;;10.57;7.25;;;;;;;15.09;100.00;101970.75;4935156;29;20492;-80
2023/08/22 04:22:18;;;;;;;12.10;7.82;;;;;;;15.10;100.00;101972.41;4934995;29;20465;-78
2023/08/22 04:24:44;;;;;;;11.68;9.88;;;;;;;15.10;100.00;101975.03;4935078;29;20028;-78
2023/08/22 04:27:09;;;;;;;13.50;9.80;;;;;;;15.10;100.00;101984.59;4935164;29;20035;-79
2023/08/22 04:29:34;;;;;;;11.30;9.75;;;;;;;15.07;100.00;101982.19;4935186;29;20032;-79
2023/08/22 04:32:03;;;;;;;12.75;10.05;;;;;;;15.06;100.00;101989.16;4935065;29;20550;-78
2023/08/22 04:34:28;;;;;;;13.63;9.90;;;;;;;14.95;100.00;101968.22;4935047;29;20027;-79
2023/08/22 04:36:54;;;;;;;12.07;9.00;;;;;;;15.08;100.00;101982.09;4935190;29;20037;-80
2023/08/22 04:39:19;;;;;;;11.52;10.10;;;;;;;14.90;100.00;101962.44;4935001;29;20052;-78
2023/08/22 04:41:44;;;;;;;14.38;10.38;;;;;;;14.94;100.00;101969.13;4934966;29;20370;-78
2023/08/22 04:44:09;;;;;;;16.02;11.48;;;;;;;15.03;100.00;101985.91;4935158;29;20024;-77
2023/08/22 04:46:35;;;;;;;14.90;11.13;;;;;;;15.01;100.00;101995.59;4937250;29;20054;-78
2023/08/22 04:49:00;;;;;;;14.70;10.98;;;;;;;14.99;100.00;101981.84;4938678;29;20050;-78
2023/08/22 04:51:25;;;;;;;13.18;9.93;;;;;;;15.01;100.00;101990.38;4938418;29;20043;-78
2023/08/22 04:53:52;;;;;;;13.20;10.43;;;;;;;15.04;100.00;101996.22;4938516;29;20075;-78
2023/08/22 04:56:17;;;;;;;16.02;10.60;;;;;;;14.95;100.00;101975.19;4938458;29;20565;-78
2023/08/22 04:58:43;;;;;;;13.65;10.05;;;;;;;15.02;100.00;101992.88;4938645;29;20059;-77
2023/08/22 05:01:08;;;;;;;12.60;10.25;;;;;;;14.92;100.00;101971.81;4938516;29;20038;-77
2023/08/22 05:03:33;;;;;;;15.75;11.20;;;;;;;15.05;100.00;101978.88;4938425;29;20036;-78
2023/08/22 05:05:59;;;;;;;12.68;9.32;;;;;;;15.42;100.00;101988.56;4938120;29;20024;-81
2023/08/22 05:08:24;;;;;;;9.77;7.63;;;;;;;15.97;100.00;101990.16;4936681;29;20103;-80
2023/08/22 05:10:49;;;;;;;12.75;8.00;;;;;;;16.36;100.00;101983.19;4937988;29;20035;-80
2023/08/22 05:13:15;;;;;;;13.23;8.10;;;;;;;16.63;100.00;101993.47;4937113;29;20028;-80
2023/08/22 05:15:42;;;;;;;11.68;8.52;;;;;;;16.41;100.00;101939.38;4938294;29;20038;-79
2023/08/22 05:18:08;;;;;;;10.07;7.15;;;;;;;16.86;100.00;101990.09;4938255;29;20385;-79
2023/08/22 05:20:33;;;;;;;9.63;7.53;;;;;;;17.00;100.00;101996.94;4938103;29;20019;-79
2023/08/22 05:22:58;;;;;;;10.88;7.57;;;;;;;17.04;100.00;101995.78;4937526;29;20047;-80
2023/08/22 05:25:24;;;;;;;9.10;6.38;;;;;;;17.24;100.00;101998.75;4938007;29;20032;-81
2023/08/22 05:27:49;;;;;;;13.10;8.55;;;;;;;17.19;100.00;102004.28;4937887;29;20054;-80
2023/08/22 05:30:14;;;;;;;11.80;8.68;;;;;;;17.04;100.00;101977.53;4938055;29;20031;-78
2023/08/22 05:32:40;;;;;;;10.90;7.85;;;;;;;17.36;100.00;102001.28;4938108;29;20393;-79
2023/08/22 05:35:06;;;;;;;10.25;8.35;;;;;;;17.37;100.00;101978.63;4937705;29;20359;-82
2023/08/22 05:37:31;;;;;;;9.88;7.30;;;;;;;17.63;100.00;101995.00;4919957;29;20040;-79
2023/08/22 05:39:56;;;;;;;11.45;8.07;;;;;;;17.72;100.00;102002.19;4937745;29;20386;-78
2023/08/22 05:42:23;;;;;;;10.00;7.85;;;;;;;17.75;100.00;101997.56;4937654;29;20115;-78
2023/08/22 05:44:48;;;;;;;12.75;8.18;;;;;;;17.72;100.00;101986.50;4937782;29;20560;-79
2023/08/22 05:47:13;;;;;;;10.00;7.53;;;;;;;17.91;100.00;102010.31;4937586;29;20040;-82
2023/08/22 05:49:42;;;;;;;10.30;7.57;;;;;;;17.98;100.00;102011.50;4933706;29;20035;-82
2023/08/22 05:52:08;;;;;;;11.45;7.90;;;;;;;17.89;100.00;101959.09;4918900;29;20124;-81
2023/08/22 05:54:33;;;;;;;9.15;6.80;;;;;;;18.47;100.00;101976.34;4918805;29;20521;-81
2023/08/22 05:56:58;;;;;;;13.75;8.43;;;;;;;19.71;100.00;102019.63;4917916;29;20516;-82
2023/08/22 05:59:24;;;;;;;10.48;6.93;;;;;;;20.94;94.26;102006.56;4918158;29;20028;-82
2023/08/22 06:01:49;;;;;;;10.55;6.75;;;;;;;21.93;86.71;101977.38;5029478;23;20059;-82
2023/08/22 06:04:17;;;;;;;8.45;5.55;;;;;;;23.15;81.05;102021.03;4917915;29;20064;-81
2023/08/22 06:06:43;;;;;;;10.02;5.68;;;;;;;23.87;76.56;102019.19;4918289;29;20044;-82
2023/08/22 06:09:08;;;;;;;9.05;6.00;;;;;;;24.48;73.00;102020.03;4917905;29;20040;-81
2023/08/22 06:11:33;;;;;;;10.70;5.55;;;;;;;25.10;69.68;102025.88;4918072;29;20048;-81
2023/08/22 06:13:59;;;;;;;10.95;5.65;;;;;;;25.46;66.60;102016.63;4917965;29;20032;-82
2023/08/22 06:16:24;;;;;;;7.43;4.85;;;;;;;25.90;64.93;102026.91;4933947;29;20122;-80
2023/08/22 06:18:49;;;;;;;9.80;5.07;;;;;;;26.15;62.35;102005.66;4937060;29;20086;-81
2023/08/22 06:21:15;;;;;;;8.20;4.55;;;;;;;26.62;60.68;102023.38;4936909;29;20442;-82
2023/08/22 06:23:40;;;;;;;8.00;5.35;;;;;;;26.92;59.84;102003.19;4916558;29;20073;-81
2023/08/22 06:26:05;;;;;;;7.05;4.93;;;;;;;27.32;58.50;102023.31;4932842;29;20031;-82
2023/08/22 06:28:31;;;;;;;6.75;4.05;;;;;;;27.62;56.40;102003.81;4936830;29;20074;-82
2023/08/22 06:31:03;;;;;;;8.40;3.53;;;;;;;27.98;57.68;102003.16;4936682;29;20115;-82
2023/08/22 06:33:29;;;;;;;7.78;4.60;;;;;;;28.25;53.64;102007.00;4936096;29;20469;-83
2023/08/22 06:36:09;;;;;;;6.50;4.13;;;;;;;28.63;56.94;102010.38;4937362;29;20062;-80
2023/08/22 06:38:41;;;;;;;5.50;3.78;;;;;;;28.67;52.97;101986.88;4936840;29;20023;-80
2023/08/22 06:41:12;;;;;;;10.10;5.25;;;;;;;28.87;51.04;102017.16;4936641;29;20103;-80
2023/08/22 06:43:38;;;;;;;9.45;4.82;;;;;;;28.76;48.93;101946.69;4936315;29;20055;-82
2023/08/22 06:46:03;;;;;;;7.65;4.55;;;;;;;29.41;48.21;102016.69;4936576;29;20023;-82
2023/08/22 06:48:28;;;;;;;8.27;4.90;;;;;;;29.50;46.88;102036.03;4936494;29;20024;-82
2023/08/22 06:50:54;;;;;;;9.82;5.40;;;;;;;29.49;46.72;102032.53;4936673;29;20389;-82
2023/08/22 06:53:20;;;;;;;9.82;5.38;;;;;;;29.61;46.28;102031.03;4919223;29;20474;-82
2023/08/22 06:55:46;;;;;;;9.05;5.25;;;;;;;29.76;45.28;102025.59;4936458;29;20035;-83
2023/08/22 06:58:12;;;;;;;8.45;4.63;;;;;;;29.94;46.01;102017.09;4936491;29;20028;-82
2023/08/22 07:00:37;;;;;;;8.90;4.60;;;;;;;30.03;43.83;102020.44;4936332;29;20028;-83
2023/08/22 07:03:03;;;;;;;8.68;4.20;;;;;;;30.10;44.55;101992.03;4935943;29;20043;-84
2023/08/22 07:05:34;;;;;;;8.18;4.57;;;;;;;30.44;44.06;102031.94;4936021;29;20187;-84
2023/08/22 07:08:00;;;;;;;6.45;4.35;;;;;;;29.79;41.92;102009.22;4933993;29;20048;-82
2023/08/22 07:10:25;;;;;;;8.60;4.60;;;;;;;29.38;43.64;102038.34;4936121;29;20055;-82
2023/08/22 07:12:50;;;;;;;8.38;4.60;;;;;;;28.35;46.08;102020.03;4936149;29;20512;-81
2023/08/22 07:15:16;;;;;;;8.80;4.25;;;;;;;26.95;49.32;101995.72;4935704;29;20034;-81
2023/08/22 07:17:41;;;;;;;9.98;4.25;;;;;;;26.27;52.91;102044.03;4936069;29;20042;-82
2023/08/22 07:20:07;;;;;;;7.95;4.45;;;;;;;25.41;56.87;102048.06;4935833;29;20031;-80
2023/08/22 07:22:33;;;;;;;4.15;2.85;;;;;;;24.69;59.52;102025.75;4918771;29;20035;-80
2023/08/22 07:24:58;;;;;;;11.02;3.95;;;;;;;24.27;62.13;102036.25;4935711;29;20355;-84
2023/08/22 07:27:24;;;;;;;8.60;3.53;;;;;;;23.95;62.92;102035.06;4936047;29;20034;-81
2023/08/22 07:29:49;;;;;;;6.65;3.33;;;;;;;23.77;65.14;102034.28;4935913;29;20478;-79
2023/08/22 07:32:14;;;;;;;6.85;4.20;;;;;;;23.54;64.11;102036.53;4935620;29;20494;-81
2023/08/22 07:34:40;;;;;;;9.38;3.80;;;;;;;23.50;63.19;102040.47;4935737;29;20122;-81
2023/08/22 07:37:05;;;;;;;7.57;3.20;;;;;;;23.30;65.10;101997.59;4935430;29;20111;-79
2023/08/22 07:39:30;;;;;;;6.85;3.30;;;;;;;23.45;64.21;102019.00;4935182;29;20070;-82
2023/08/22 07:41:56;;;;;;;6.70;3.10;;;;;;;23.54;64.90;102031.28;4935873;29;20024;-82
2023/08/22 07:44:23;;;;;;;6.80;3.67;;;;;;;23.64;63.96;102033.84;4935980;29;20118;-82
2023/08/22 07:46:49;;;;;;;9.25;4.93;;;;;;;23.63;63.82;102040.13;4935678;29;20499;-80
2023/08/22 07:49:14;;;;;;;9.73;4.82;;;;;;;23.69;63.47;102036.84;4935601;29;20031;-82
2023/08/22 07:51:40;;;;;;;7.47;4.20;;;;;;;23.63;65.67;102022.47;4935572;29;20028;-82
2023/08/22 07:54:05;;;;;;;10.93;6.20;;;;;;;23.54;65.90;102023.38;4933642;29;20036;-81
2023/08/22 07:56:34;;;;;;;10.90;6.75;;;;;;;23.56;65.23;102039.03;4935630;29;20460;-82
2023/08/22 07:58:59;;;;;;;11.23;5.00;;;;;;;23.50;66.51;102031.72;4935493;29;20032;-83
2023/08/22 08:01:24;;;;;;;11.20;6.00;;;;;;;23.38;67.06;102045.13;4918569;29;20544;-84
2023/08/22 08:03:50;;;;;;;11.13;5.97;;;;;;;23.21;67.74;102021.44;4919945;29;20055;-82
2023/08/22 08:06:15;;;;;;;11.75;5.90;;;;;;;23.35;66.81;102036.69;4916939;29;20068;-81
2023/08/22 08:08:44;;;;;;;11.40;6.00;;;;;;;23.58;67.16;102050.25;4916013;29;20165;-83
2023/08/22 08:11:09;;;;;;;7.90;3.72;;;;;;;23.77;65.94;102055.38;4916296;29;20047;-86
2023/08/22 08:13:34;;;;;;;9.45;4.45;;;;;;;23.87;65.59;102056.13;4916213;29;20379;-84
2023/08/22 08:16:00;;;;;;;10.20;5.50;;;;;;;23.85;66.53;102046.72;4914977;29;20039;-81
2023/08/22 08:18:25;;;;;;;7.90;5.15;;;;;;;23.83;66.22;102054.78;4932341;29;20024;-81
2023/08/22 08:20:51;;;;;;;9.77;3.78;;;;;;;23.92;67.43;102061.78;4936279;29;20106;-83
2023/08/22 08:23:16;;;;;;;10.40;5.00;;;;;;;23.70;65.24;102065.72;4939210;29;20114;-83
2023/08/22 08:25:42;;;;;;;8.80;5.28;;;;;;;23.62;66.24;102055.09;4938740;29;20465;-81
2023/08/22 08:28:07;;;;;;;9.93;4.95;;;;;;;23.55;67.89;102053.19;4939006;29;20049;-81
2023/08/22 08:30:33;;;;;;;11.13;5.50;;;;;;;23.46;68.00;102044.38;4938975;29;20076;-84
2023/08/22 08:33:00;;;;;;;9.27;6.10;;;;;;;23.24;68.78;102018.47;4939073;29;20059;-83
2023/08/22 08:35:26;;;;;;;10.52;6.30;;;;;;;23.32;67.95;102037.00;4938893;29;20466;-83
2023/08/22 08:37:52;;;;;;;10.48;5.72;;;;;;;23.51;69.37;102067.66;4937169;29;20138;-81
2023/08/22 08:40:18;;;;;;;11.27;5.55;;;;;;;23.66;71.96;102074.09;4938486;29;20074;-83
2023/08/22 08:42:45;;;;;;;9.13;5.35;;;;;;;23.78;72.24;102061.47;4938890;29;20114;-83
2023/08/22 08:45:11;;;;;;;8.63;5.90;;;;;;;23.74;68.96;102076.78;4939017;29;20111;-82
2023/08/22 08:47:39;;;;;;;11.88;5.97;;;;;;;23.83;69.35;102065.34;4938688;29;20028;-82
2023/08/22 08:50:08;;;;;;;9.77;5.95;;;;;;;23.64;70.48;102028.59;4938512;29;20114;-85
2023/08/22 08:52:35;;;;;;;10.05;5.70;;;;;;;23.87;67.34;102065.84;4938896;29;20068;-84
2023/08/22 08:55:04;;;;;;;8.70;4.72;;;;;;;23.64;68.04;102023.31;4936936;29;20024;-84
2023/08/22 08:57:29;;;;;;;8.98;4.90;;;;;;;23.91;69.36;102077.75;4938727;29;20035;-83
2023/08/22 08:59:55;;;;;;;6.70;4.03;;;;;;;23.92;71.09;102076.78;4938770;29;20026;-81
2023/08/22 09:02:20;;;;;;;7.70;4.30;;;;;;;23.91;69.56;102081.22;4938526;29;20024;-83
2023/08/22 09:04:46;;;;;;;11.65;4.88;;;;;;;23.78;69.39;102074.66;4938512;29;20047;-86
2023/08/22 09:07:11;;;;;;;10.70;4.82;;;;;;;23.63;67.97;102072.59;4938485;29;20031;-85
2023/08/22 09:09:36;;;;;;;8.35;5.55;;;;;;;23.52;69.69;102072.78;4938158;29;20394;-85
2023/08/22 09:12:07;;;;;;;9.82;5.90;;;;;;;23.43;67.67;102073.69;4938518;29;20099;-84
2023/08/22 09:14:33;;;;;;;;;;;;;;;23.54;68.69;102068.19;4938801;29;20030;-81
2023/08/22 09:17:01;;;;;;;8.32;4.97;;;;;;;23.36;69.02;102070.81;4938284;29;19918;-85
2023/08/22 09:19:31;;;;;;;11.02;6.20;;;;;;;23.27;69.88;102073.53;4938486;29;20510;-84
2023/08/22 09:21:58;;;;;;;9.23;5.60;;;;;;;23.18;70.56;102062.06;4938240;29;20031;-84
2023/08/22 09:24:25;;;;;;;10.73;6.60;;;;;;;23.18;71.58;102078.69;4938101;29;20469;-81
2023/08/22 09:26:50;;;;;;;10.65;5.93;;;;;;;23.03;74.20;102039.84;4928614;29;20035;-79
2023/08/22 09:29:24;;;;;;;10.98;6.65;;;;;;;23.22;72.61;102060.81;4919846;29;20107;-81
2023/08/22 09:31:50;;;;;;;11.95;6.85;;;;;;;23.23;69.98;102051.09;4901723;29;20028;-80
2023/08/22 09:34:15;;;;;;;13.27;7.63;;;;;;;23.51;70.83;102059.75;4918941;29;20032;-81
2023/08/22 09:36:47;;;;;;;12.05;6.82;;;;;;;23.71;68.80;102056.84;4918876;29;20083;-80
2023/08/22 09:39:20;;;;;;;11.52;6.57;;;;;;;23.94;66.71;102057.16;4918739;29;20107;-81
2023/08/22 09:41:50;;;;;;;8.80;5.03;;;;;;;24.06;65.17;102049.81;4919060;29;20028;-80
2023/08/22 09:44:15;;;;;;;10.55;6.30;;;;;;;24.14;64.47;102041.13;4918826;29;20024;-80
2023/08/22 09:46:42;;;;;;;10.70;5.88;;;;;;;24.22;63.57;102068.41;4918602;29;20087;-81
2023/08/22 09:49:13;;;;;;;10.02;5.00;;;;;;;24.19;65.69;102070.53;4918652;29;20059;-81
2023/08/22 09:51:39;;;;;;;;;;;;;;;24.29;64.28;102066.81;4919010;29;20036;-81
2023/08/22 09:54:05;;;;;;;9.13;4.75;;;;;;;23.90;63.88;102058.47;4918507;29;19970;-81
2023/08/22 09:56:31;;;;;;;9.02;4.05;;;;;;;23.77;61.41;102039.56;4918512;29;20419;-80
2023/08/22 09:58:59;;;;;;;6.45;3.38;;;;;;;23.69;61.93;102035.03;4918486;29;20035;-81
2023/08/22 10:01:25;;;;;;;7.78;3.40;;;;;;;23.59;64.00;102002.66;4918498;29;20021;-81
2023/08/22 10:03:55;;;;;;;8.35;3.80;;;;;;;23.96;62.55;102026.16;4918340;29;20056;-81
2023/08/22 10:06:28;;;;;;;7.10;3.40;;;;;;;24.21;60.08;102023.69;4918386;29;20031;-81
2023/08/22 10:08:54;;;;;;;8.25;3.55;;;;;;;24.59;59.81;102056.75;4918330;29;20043;-82
2023/08/22 10:11:21;;;;;;;7.88;2.33;;;;;;;24.77;60.09;102061.91;4918332;29;20029;-80
2023/08/22 10:13:49;;;;;;;9.48;3.00;;;;;;;24.78;58.26;102055.69;4918322;29;20123;-80
2023/08/22 10:16:14;;;;;;;5.97;2.10;;;;;;;24.84;56.93;102063.75;4918245;29;20035;-79
2023/08/22 10:18:41;;;;;;;6.05;2.63;;;;;;;24.92;58.17;102080.66;4918098;29;20040;-79
2023/08/22 10:21:06;;;;;;;6.88;2.70;;;;;;;24.95;57.32;102072.38;4918223;29;20076;-81
2023/08/22 10:23:44;;;;;;;6.47;2.67;;;;;;;25.01;58.11;102069.94;4918090;29;20036;-80
2023/08/22 10:26:09;;;;;;;7.55;3.40;;;;;;;24.99;55.78;102063.16;4917906;29;20032;-79
2023/08/22 10:28:43;;;;;;;4.95;1.98;;;;;;;24.96;56.05;102051.06;4918084;29;20431;-79
2023/08/22 10:31:11;;;;;;;7.72;2.17;;;;;;;24.95;53.49;102059.16;4917862;29;20036;-78
2023/08/22 10:33:37;;;;;;;6.68;2.83;;;;;;;25.00;54.80;102060.34;4917750;29;20379;-78
2023/08/22 10:36:09;;;;;;;9.00;2.45;;;;;;;25.03;56.69;102061.88;4917768;29;20048;-76
2023/08/22 10:38:49;;;;;;;7.55;2.63;;;;;;;25.12;57.40;102048.50;4917923;29;20028;-81
2023/08/22 10:41:15;;;;;;;5.22;2.08;;;;;;;25.05;56.29;102020.25;4917543;29;20102;-80
2023/08/22 10:43:40;;;;;;;3.78;1.67;;;;;;;25.46;53.47;102055.47;4916805;29;20107;-79
2023/08/22 10:46:05;;;;;;;6.60;2.25;;;;;;;25.60;51.88;102051.38;4917704;29;20052;-79
2023/08/22 10:48:31;;;;;;;5.82;1.83;;;;;;;25.67;52.69;102053.19;4917365;29;20066;-79
2023/08/22 10:51:06;;;;;;;4.40;1.98;;;;;;;25.61;52.08;102053.03;4917649;29;20051;-80
2023/08/22 10:53:44;;;;;;;5.97;1.77;;;;;;;25.44;52.00;102057.47;4917359;29;20039;-79
2023/08/22 10:56:23;;;;;;;5.20;1.90;;;;;;;25.41;53.90;102036.66;4917401;29;20044;-79
2023/08/22 10:59:03;;;;;;;5.25;1.52;;;;;;;25.27;54.46;102042.56;4917288;29;20036;-78
2023/08/22 11:01:29;;;;;;;7.35;1.67;;;;;;;25.21;52.95;102046.72;4917297;29;20103;-81
2023/08/22 11:03:55;;;;;;;3.63;1.48;;;;;;;25.23;52.04;102050.03;4917160;29;20044;-79
2023/08/22 11:06:22;;;;;;;4.53;1.35;;;;;;;25.31;51.18;102033.34;4917175;29;20032;-80
2023/08/22 11:08:48;;;;;;;5.38;1.20;;;;;;;25.66;51.93;102053.34;4917028;29;20598;-81
2023/08/22 11:11:17;;;;;;;4.63;1.23;;;;;;;25.61;49.88;102043.28;4900362;29;20140;-80
2023/08/22 11:13:43;;;;;;;4.00;1.55;;;;;;;25.62;50.26;102062.63;4916818;29;20111;-82